Check out our new PWSWeather beta!
PWSweather.com
Personal Weather Stations
Station Observations
KCTCOLEB1
Sandy Brook, Colebrook, CT 06021

Sandy BrookColebrook, CT 06021

Lat: 42.0018, Lon: -73.0825

Elevation: 935

Station Type: Davis Vantage Pro2 + Solar + UV

Latest ConditionsUpdated 7:30:01 AM EST Thursday, Feb 27, 2020
Currently Today's Max Today's Min Today's Average
Temperature 39.3°F4.1°C 40.5°F4.7°C 39.3°F4.1°C 40.0°F4.4°C
Dew Point 38.5°F3.6°C 39.7°F4.3°C 38.5°F3.6°C 39.2°F4.0°C
Winds Calm Calm 4.6 mph -7.4 kmh - - 1.3 mph 2.1 kmh
Wind Gusts -- 9.2 mph14.8 kmh - -
Humidity 97% 97% 96% 97%
Pressure 29.20 in988.8 mb 29.71 in1006.1 mb 29.20 in988.8 mb -
Precipitation - 0.86 in21.8 mm - -
Hour Temp Dew Point Humidity Winds Wind Gusts Pressure Precip Precip Rate Daily Precip Total
07:30 AM 39.3°F4.1°C 38.5°F3.6°C 97% Calm Calm -- 29.20 in988.8 mb - 0.00 in0.0 mm 0.86 in21.8 mm
07:20 AM 39.3°F4.1°C 38.5°F3.6°C 97% Calm Calm 1.2 mph1.9 kmh 29.20 in988.8 mb - 0.01 in0.3 mm 0.86 in21.8 mm
07:10 AM 39.4°F4.1°C 38.6°F3.7°C 97% Calm Calm -- 29.21 in989.2 mb - 0.00 in0.0 mm 0.85 in21.6 mm
07:00 AM 39.5°F4.2°C 38.7°F3.7°C 97% Calm Calm -- 29.22 in989.5 mb - 0.02 in0.5 mm 0.85 in21.6 mm
06:50 AM 39.6°F4.2°C 38.8°F3.8°C 97% Calm Calm -- 29.24 in990.2 mb - 0.02 in0.5 mm 0.83 in21.1 mm
06:40 AM 39.7°F4.3°C 38.9°F3.8°C 97% Calm Calm -- 29.23 in989.8 mb - 0.01 in0.3 mm 0.81 in20.6 mm
06:30 AM 40.0°F4.4°C 39.2°F4.0°C 97% Calm Calm 1.2 mph1.9 kmh 29.23 in989.8 mb - 0.01 in0.3 mm 0.80 in20.3 mm
06:20 AM 40.1°F4.5°C 39.3°F4.1°C 97% 1.2 mph WSW1.9 kmh WSW 3.5 mph5.6 kmh 29.25 in990.5 mb - 0.02 in0.5 mm 0.80 in20.3 mm
06:10 AM 40.2°F4.6°C 39.4°F4.1°C 97% 1.2 mph WSW1.9 kmh WSW 2.3 mph3.7 kmh 29.27 in991.2 mb - 0.01 in0.3 mm 0.78 in19.8 mm
06:00 AM 40.2°F4.6°C 39.4°F4.1°C 97% 1.2 mph WSW1.9 kmh WSW 2.3 mph3.7 kmh 29.27 in991.2 mb - 0.03 in0.8 mm 0.78 in19.8 mm
05:50 AM 40.0°F4.4°C 39.2°F4.0°C 97% 1.2 mph WSW1.9 kmh WSW 1.2 mph1.9 kmh 29.28 in991.5 mb - 0.03 in0.8 mm 0.75 in19.1 mm
05:40 AM 40.0°F4.4°C 39.2°F4.0°C 97% Calm Calm -- 29.31 in992.6 mb - 0.05 in1.3 mm 0.72 in18.3 mm
05:30 AM 40.0°F4.4°C 39.2°F4.0°C 97% 1.2 mph WSW1.9 kmh WSW 2.3 mph3.7 kmh 29.31 in992.6 mb - 0.02 in0.5 mm 0.68 in17.3 mm
05:20 AM 40.1°F4.5°C 39.3°F4.1°C 97% 1.2 mph SSE1.9 kmh SSE 2.3 mph3.7 kmh 29.32 in992.9 mb - 0.01 in0.3 mm 0.66 in16.8 mm
05:10 AM 40.2°F4.6°C 39.5°F4.2°C 97% Calm Calm 1.2 mph1.9 kmh 29.32 in992.9 mb - 0.03 in0.8 mm 0.66 in16.8 mm
05:00 AM 40.3°F4.6°C 39.5°F4.2°C 97% Calm Calm -- 29.34 in993.6 mb - 0.05 in1.3 mm 0.63 in16.0 mm
04:50 AM 40.4°F4.7°C 39.6°F4.2°C 97% Calm Calm 1.2 mph1.9 kmh 29.35 in993.9 mb - 0.04 in1.0 mm 0.59 in15.0 mm
04:40 AM 40.3°F4.6°C 39.5°F4.2°C 97% 1.2 mph NNE1.9 kmh NNE 1.2 mph1.9 kmh 29.35 in993.9 mb - 0.04 in1.0 mm 0.56 in14.2 mm
04:30 AM 40.3°F4.6°C 39.6°F4.2°C 97% Calm Calm 2.3 mph3.7 kmh 29.36 in994.2 mb - 0.05 in1.3 mm 0.52 in13.2 mm
04:20 AM 40.5°F4.7°C 39.7°F4.3°C 97% Calm Calm 1.2 mph1.9 kmh 29.37 in994.6 mb - 0.04 in1.0 mm 0.48 in12.2 mm
04:10 AM 40.4°F4.7°C 39.6°F4.2°C 97% 1.2 mph WSW1.9 kmh WSW 1.2 mph1.9 kmh 29.38 in994.9 mb - 0.04 in1.0 mm 0.45 in11.4 mm
04:00 AM 40.4°F4.7°C 39.7°F4.3°C 97% 3.5 mph ESE5.6 kmh ESE 4.6 mph7.4 kmh 29.38 in994.9 mb - 0.04 in1.0 mm 0.42 in10.7 mm
03:50 AM 40.3°F4.6°C 39.5°F4.2°C 97% 2.3 mph NW3.7 kmh NW 3.5 mph5.6 kmh 29.39 in995.3 mb - 0.04 in1.0 mm 0.38 in9.7 mm
03:40 AM 40.2°F4.6°C 39.4°F4.1°C 97% 2.3 mph W3.7 kmh W 8.1 mph13.0 kmh 29.41 in995.9 mb - 0.04 in1.0 mm 0.35 in8.9 mm
03:30 AM 40.0°F4.4°C 39.2°F4.0°C 97% 3.5 mph E5.6 kmh E 3.5 mph5.6 kmh 29.44 in997.0 mb - 0.02 in0.5 mm 0.31 in7.9 mm
03:20 AM 39.8°F4.3°C 39.0°F3.9°C 97% 2.3 mph W3.7 kmh W 4.6 mph7.4 kmh 29.44 in997.0 mb - 0.04 in1.0 mm 0.29 in7.4 mm
03:10 AM 39.8°F4.3°C 39.0°F3.9°C 97% 2.3 mph NW3.7 kmh NW 3.5 mph5.6 kmh 29.45 in997.3 mb - 0.04 in1.0 mm 0.26 in6.6 mm
03:00 AM 39.8°F4.3°C 39.0°F3.9°C 97% Calm Calm -- 29.48 in998.3 mb - 0.04 in1.0 mm 0.22 in5.6 mm
02:50 AM 39.8°F4.3°C 39.0°F3.9°C 97% 1.2 mph WSW1.9 kmh WSW 3.5 mph5.6 kmh 29.50 in999.0 mb - 0.05 in1.3 mm 0.19 in4.8 mm
02:40 AM 39.8°F4.3°C 39.0°F3.9°C 97% 1.2 mph W1.9 kmh W 2.3 mph3.7 kmh 29.50 in999.0 mb - 0.04 in1.0 mm 0.15 in3.8 mm
02:30 AM 39.8°F4.3°C 39.0°F3.9°C 97% 3.5 mph W5.6 kmh W 4.6 mph7.4 kmh 29.52 in999.7 mb - 0.03 in0.8 mm 0.11 in2.8 mm
02:20 AM 39.8°F4.3°C 39.0°F3.9°C 97% 1.2 mph SW1.9 kmh SW 2.3 mph3.7 kmh 29.52 in999.7 mb - 0.02 in0.5 mm 0.08 in2.0 mm
02:10 AM 39.8°F4.3°C 39.0°F3.9°C 97% 1.2 mph SW1.9 kmh SW 1.2 mph1.9 kmh 29.53 in1000.0 mb - 0.02 in0.5 mm 0.07 in1.8 mm
02:00 AM 39.8°F4.3°C 39.0°F3.9°C 97% 2.3 mph W3.7 kmh W 3.5 mph5.6 kmh 29.55 in1000.7 mb - 0.01 in0.3 mm 0.05 in1.3 mm
01:50 AM 39.8°F4.3°C 39.0°F3.9°C 97% 1.2 mph SW1.9 kmh SW 3.5 mph5.6 kmh 29.56 in1001.0 mb - 0.01 in0.3 mm 0.04 in1.0 mm
01:40 AM 39.8°F4.3°C 38.8°F3.8°C 96% 1.2 mph SW1.9 kmh SW 3.5 mph5.6 kmh 29.58 in1001.7 mb - 0.03 in0.8 mm 0.03 in0.8 mm
01:30 AM 39.9°F4.4°C 39.1°F3.9°C 97% 1.2 mph WNW1.9 kmh WNW 2.3 mph3.7 kmh 29.61 in1002.7 mb - 0.01 in0.3 mm 0.01 in0.3 mm
01:20 AM 40.0°F4.4°C 39.2°F4.0°C 97% 2.3 mph W3.7 kmh W 3.5 mph5.6 kmh 29.62 in1003.0 mb - 0.00 in0.0 mm 0.00 in0.0 mm
01:10 AM 40.0°F4.4°C 39.0°F3.9°C 96% 2.3 mph WNW3.7 kmh WNW 2.3 mph3.7 kmh 29.61 in1002.7 mb - 0.00 in0.0 mm 0.00 in0.0 mm
01:00 AM 40.0°F4.4°C 39.0°F3.9°C 96% 1.2 mph SSW1.9 kmh SSW 3.5 mph5.6 kmh 29.62 in1003.0 mb - 0.00 in0.0 mm 0.00 in0.0 mm
12:50 AM 40.0°F4.4°C 39.0°F3.9°C 96% 4.6 mph SW7.4 kmh SW 9.2 mph14.8 kmh 29.64 in1003.7 mb - 0.00 in0.0 mm 0.00 in0.0 mm
12:40 AM 40.1°F4.5°C 39.1°F3.9°C 96% 2.3 mph SW3.7 kmh SW 3.5 mph5.6 kmh 29.67 in1004.7 mb - 0.00 in0.0 mm 0.00 in0.0 mm
12:30 AM 40.2°F4.6°C 39.2°F4.0°C 96% 1.2 mph N1.9 kmh N 1.2 mph1.9 kmh 29.69 in1005.4 mb - 0.00 in0.0 mm 0.00 in0.0 mm
12:20 AM 40.2°F4.6°C 39.2°F4.0°C 96% 2.3 mph E3.7 kmh E 3.5 mph5.6 kmh 29.69 in1005.4 mb - 0.00 in0.0 mm 0.00 in0.0 mm
12:10 AM 40.2°F4.6°C 39.2°F4.0°C 96% 1.2 mph NW1.9 kmh NW 3.5 mph5.6 kmh 29.70 in1005.8 mb - 0.00 in0.0 mm 0.00 in0.0 mm
12:00 AM 40.3°F4.6°C 39.3°F4.1°C 96% 2.3 mph NW3.7 kmh NW 3.5 mph5.6 kmh 29.71 in1006.1 mb - 0.00 in0.0 mm 0.00 in0.0 mm